CYHZ/YHZ METAR and TAF weather

Enter ICAO airport designator
Station Type Date Time Source
CYHZ METAR 2019/12/16 03:21 UTC NOAA

CYHZ 160321Z 26012G26KT 15SM SKC 03/M03 A2943 RMK SLP971


Station Type Date Time Source
CYHZ Decoded METAR 2019/12/16 03:21 UTC NOAA

Halifax International Airport , Canada (CYHZ) 44-53N 063-30W
Dec 15, 2019 - 10:21 PM EST / 2019.12.16 0321 UTC
Wind: from the W (260 degrees) at 14 MPH (12 KT) gusting to 30 MPH (26 KT):0
Visibility: 15 mile(s):0
Sky conditions: clear
Temperature: 37 F (3 C)
Dew Point: 26 F (-3 C)
Relative Humidity: 64%
Pressure (altimeter): 29.43 in. Hg (996 hPa)
ob: CYHZ 160321Z 26012G26KT 15SM SKC 03/M03 A2943 RMK SLP971
cycle: 3

Station Type Date Time Source
CYHZ TAF 2019/12/16 03:45 UTC NOAA

TAF TAF CYHZ 160242Z 1603/1624 25020G30KT P6SM FEW040
FM160600 27025G35KT P6SM -SHSN SCT020 OVC030
FM161000 28025G40KT P6SM BKN030
FM161500 29025G40KT P6SM SCT030
FM161800 28020G35KT P6SM SKC
BECMG 1618/1620 28020KT
RMK NXT FCST BY 160600Z

Example: see airport list